Effective Sunday, March 17, 2024, the National Weather Service National Data Buoy Center will discontinue its Dial-A-Buoy Interactive Voice Response system. For more information, see Service Change Notice 24-06 (PDF).

Station AGXC1 - 9410647 - Angels Gate, CA Image indicating link to RSS feed of recent meteorological observations for station AGXC1


Conditions at AGXC1 as of
(3:00 am PST)
1100 GMT on 03/03/2024:
     

Click on the graph icon in the table below to see a time series plot of the last five days of that observation.

5-day plot - Wind Direction Wind Direction (WDIR): NW ( 320 deg true )
5-day plot - Wind Speed Wind Speed (WSPD): 2.9 kts
5-day plot - Wind Gust Wind Gust (GST): 5.1 kts
5-day plot - Air Temperature Air Temperature (ATMP): 54.0 °F
5-day plot - Wind Speed at 10 Meters Wind Speed at 10 meters (WSPD10M): 3.9 kts
5-day plot - Wind Speed at 20 Meters Wind Speed at 20 meters (WSPD20M): 3.9 kts
5-day plot -  Wind Speed, Wind Gust and Atmospheric Pressure Combined plot of Wind Speed, Gust, and Air Pressure
NOS Water Level Observation Network Water Level
Previous observations
TIME
(PST)
5-day plot - Wind Direction
WDIR
 
5-day plot - Wind Speed
WSPD
kts
5-day plot - Wind Gust
GST
kts
5-day plot - Wave Height
WVHT
ft
5-day plot - Dominant Wave Period
DPD
sec
5-day plot - Average Wave Period
APD
sec
5-day plot - Mean Wave Direction
MWD
 
5-day plot - Atmospheric Pressure
PRES
in
5-day plot - Pressure Tendency
PTDY
in
5-day plot - Air Temperature
ATMP
°F
5-day plot - Water Temperature
WTMP
°F
5-day plot - Dew Point
DEWP
°F
5-day plot - Salinity
SAL
psu
5-day plot - Visibility
VIS
nmi
5-day plot - Tide (above MLLW)
TIDE
ft
2024-03-03 02:54 am NW 2.9 5.1------------
2024-03-03 02:48 am W 5.1 6.0------------
2024-03-03 02:42 am W 5.1 7.0------ 53.6-----
2024-03-03 02:36 am W 7.0 8.9------ 53.8-----
2024-03-03 02:30 am W 7.0 9.9------ 53.6-----
2024-03-03 02:24 am W 7.0 8.9------ 53.6-----
2024-03-03 02:12 am W 8.0 9.9------ 53.8-----
2024-03-03 02:00 am NW 7.0 8.9------ 55.2-----
2024-03-03 01:48 amWNW 4.1 5.1------ 55.8-----
2024-03-03 01:42 am W 2.9 4.1------ 55.9-----
2024-03-03 01:36 am W 4.1 5.1------ 55.9-----
2024-03-03 01:30 am W 5.1 5.1------ 55.8-----
2024-03-03 01:24 am W 5.1 6.0------ 55.8-----
2024-03-03 01:12 am W 4.1 5.1------ 55.6-----
2024-03-03 12:54 am W 2.9 4.1------ 55.4-----
2024-03-03 12:42 amWNW 1.9 2.9------ 55.2-----
2024-03-03 12:30 amWNW 4.1 5.1------ 55.4-----
2024-03-03 12:24 amWNW 4.1 5.1------ 55.4-----
2024-03-03 12:18 amWNW 4.1 6.0------ 55.4-----
2024-03-03 12:06 am NW 2.9 4.1------ 55.4-----
2024-03-03 12:00 amNNW 2.9 4.1------ 55.2-----
2024-03-02 11:54 pmNNW 4.1 5.1------ 55.4-----
2024-03-02 11:48 pm NW 2.9 5.1------ 55.4-----
2024-03-02 11:42 pmWNW 5.1 7.0------ 55.4-----
2024-03-02 11:30 pm W 8.0 11.1------ 55.2-----
2024-03-02 11:24 pm W 7.0 9.9------ 55.0-----
2024-03-02 11:18 pm W 8.0 11.1------ 54.9-----
2024-03-02 11:06 pm W 12.0 15.0------ 54.5-----
2024-03-02 10:54 pm W 12.0 17.1------ 53.8-----
2024-03-02 10:48 pm W 13.0 19.0------ 54.7-----
2024-03-02 10:42 pm W 11.1 19.0------ 58.3-----
2024-03-02 10:30 pm W 8.0 9.9------ 58.6-----
2024-03-02 10:24 pm W 8.9 12.0------ 58.6-----
2024-03-02 10:18 pm W 8.9 12.0------ 58.6-----
2024-03-02 10:12 pmWSW 8.9 12.0------ 58.6-----
2024-03-02 10:00 pmWSW 8.9 12.0------ 58.6-----
2024-03-02 09:48 pm SW 8.9 12.0------ 58.5-----
2024-03-02 09:42 pmWSW 7.0 9.9------ 58.3-----
2024-03-02 09:36 pmWSW 6.0 8.0------ 58.1-----
2024-03-02 09:24 pm W 8.0 11.1------ 58.3-----
2024-03-02 09:12 pm W 7.0 9.9------ 58.3-----
2024-03-02 09:06 pm W 9.9 13.0------ 58.3-----
2024-03-02 09:00 pm W 8.0 11.1------ 58.3-----
2024-03-02 08:48 pm W 9.9 13.0------ 58.3-----
2024-03-02 08:36 pmWSW 8.0 11.1------ 58.3-----
2024-03-02 08:24 pmWSW 8.9 12.0------ 58.3-----
2024-03-02 08:18 pmWSW 9.9 13.0------ 58.3-----
2024-03-02 08:12 pmWSW 9.9 13.0------ 58.3-----
2024-03-02 08:06 pm W 11.1 13.0------ 58.3-----
2024-03-02 08:00 pmWSW 9.9 12.0------ 58.3-----
2024-03-02 07:54 pm W 7.0 8.9------ 58.1-----
2024-03-02 07:48 pmWSW 7.0 8.9------ 57.9-----
2024-03-02 07:36 pm W 8.0 11.1------ 57.7-----
2024-03-02 07:24 pm W 9.9 12.0------ 58.1-----
2024-03-02 07:18 pm W 11.1 14.0------ 58.3-----
2024-03-02 07:12 pmWSW 9.9 12.0------ 58.1-----
2024-03-02 07:00 pm W 8.9 12.0------ 57.9-----
2024-03-02 06:48 pmWSW 8.0 11.1------ 57.6-----
2024-03-02 06:42 pmWSW 8.9 11.1------ 57.4-----
2024-03-02 06:36 pmWSW 8.0 9.9------ 57.4-----
2024-03-02 06:24 pmWSW 8.0 11.1------ 57.2-----
2024-03-02 06:12 pm SW 6.0 8.9------ 56.8-----
2024-03-02 06:00 pmWSW 6.0 8.0------ 56.3-----
2024-03-02 05:54 pmWSW 6.0 8.9------ 56.5-----
2024-03-02 05:48 pm W 7.0 11.1------ 56.7-----
2024-03-02 05:42 pmWNW 6.0 8.0------ 56.7-----
2024-03-02 05:30 pmWNW 6.0 8.9------ 56.5-----
2024-03-02 05:24 pmWNW 11.1 14.0------ 56.5-----
2024-03-02 05:18 pmWNW 12.0 15.9------ 57.4-----
2024-03-02 05:06 pmWSW 11.1 13.0------ 59.2-----
2024-03-02 04:54 pmWSW 8.9 12.0------ 59.2-----
2024-03-02 04:48 pmWSW 8.9 12.0------ 59.2-----
2024-03-02 04:42 pmWSW 9.9 12.0------ 59.2-----
2024-03-02 04:30 pmWSW 8.9 13.0------ 59.2-----
2024-03-02 04:18 pmWSW 11.1 15.0------ 59.2-----
2024-03-02 04:06 pmWSW 11.1 14.0------ 59.7-----
2024-03-02 04:00 pmWSW 9.9 13.0------ 59.5-----
2024-03-02 03:54 pmWSW 9.9 13.0------ 60.1-----
2024-03-02 03:48 pmWSW 9.9 14.0------ 60.1-----
2024-03-02 03:36 pmWSW 9.9 13.0------------
2024-03-02 03:30 pmWSW 8.0 11.1------------
2024-03-02 03:24 pmWSW 9.9 13.0------ 59.7-----
2024-03-02 03:12 pmWSW 8.9 13.0------ 59.7-----
2024-03-02 02:54 pmWSW 9.9 13.0------ 59.9-----
2024-03-02 02:48 pmWSW 9.9 12.0------ 59.5-----
2024-03-02 02:36 pmWSW 8.9 12.0------ 59.5-----
2024-03-02 02:24 pmWSW 12.0 15.0------ 59.4-----
2024-03-02 02:18 pmWSW 8.9 13.0------------
2024-03-02 02:12 pmWSW 8.9 13.0------------
2024-03-02 02:00 pmWSW 11.1 15.0------------
2024-03-02 01:48 pmWSW 12.0 15.9------ 58.3-----
2024-03-02 01:36 pmWSW 14.0 17.1------ 57.6-----
2024-03-02 01:30 pmWSW 15.0 19.0------ 57.2-----
2024-03-02 01:24 pm W 14.0 19.0------ 57.2-----
2024-03-02 01:18 pm W 17.1 22.0------ 57.2-----
2024-03-02 01:06 pmWSW 19.0 22.9------ 59.7-----
2024-03-02 01:00 pm SW 17.1 20.0------ 60.4-----
2024-03-02 12:54 pm SW 17.1 21.0------ 60.4-----
2024-03-02 12:42 pm SW 18.1 21.0------ 60.4-----
2024-03-02 12:30 pm SW 18.1 22.0------------
2024-03-02 12:18 pm SW 15.9 18.1------ 60.6-----
2024-03-02 12:12 pm SW 15.9 19.0------ 60.4-----
2024-03-02 12:06 pm SW 15.0 18.1------ 60.3-----
2024-03-02 12:00 pm SW 15.0 18.1------ 60.3-----
2024-03-02 11:48 am--------- 59.7-----
2024-03-02 11:42 am SW 13.0 15.9------ 59.7-----
2024-03-02 11:36 am SW 9.9 12.0------ 59.4-----
2024-03-02 11:24 amSSW 12.0 14.0------ 58.8-----
2024-03-02 11:12 amSSW 13.0 15.0------ 58.5-----
2024-03-02 11:00 am SW 12.0 14.0------ 58.3-----
2024-03-02 10:54 am SW 13.0 15.0------ 58.1-----
2024-03-02 10:48 am SW 13.0 15.9------ 57.9-----
2024-03-02 10:42 amWSW 12.0 17.1------ 57.4-----
2024-03-02 10:30 amWSW 15.0 19.0------ 57.7-----
2024-03-02 10:24 am SW 18.1 22.9------ 57.6-----
2024-03-02 10:18 amSSW 18.1 21.0------ 57.7-----
2024-03-02 10:06 amSSW 15.9 20.0------ 58.1-----
2024-03-02 09:54 am SW 14.0 17.1------ 58.5-----
2024-03-02 09:48 amSSW 15.0 18.1------ 59.4-----
2024-03-02 09:42 amSSW 14.0 18.1------ 60.3-----
2024-03-02 09:30 amSSW 13.0 18.1------ 60.1-----
2024-03-02 09:18 amSSW 12.0 14.0------ 60.4-----
2024-03-02 09:12 amSSW 12.0 14.0------ 60.3-----
2024-03-02 09:06 amSSW 12.0 15.0------ 59.7-----
2024-03-02 08:54 amSSW 13.0 15.0------ 59.0-----
2024-03-02 08:42 amSSW 12.0 17.1------ 59.5-----
2024-03-02 08:36 amSSW 12.0 14.0------ 59.7-----
2024-03-02 08:30 amSSW 11.1 13.0------ 59.7-----
2024-03-02 08:18 amSSW 12.0 15.0------ 59.7-----
2024-03-02 08:06 am SW 12.0 14.0------ 59.5-----
2024-03-02 08:00 am SW 12.0 14.0------ 59.5-----
2024-03-02 07:54 am SW 14.0 17.1------ 59.4-----
2024-03-02 07:42 am SW 8.9 11.1------ 59.2-----
2024-03-02 07:30 amSSW 9.9 12.0------ 58.8-----
2024-03-02 07:24 amSSW 11.1 13.0------------
2024-03-02 07:18 amSSW 9.9 12.0------------
2024-03-02 07:06 amSSW 9.9 12.0------ 58.5-----
2024-03-02 06:54 amSSW 9.9 12.0------ 58.3-----
2024-03-02 06:42 amSSW 9.9 12.0------ 58.1-----
2024-03-02 06:36 amSSW 8.9 12.0------ 57.9-----
2024-03-02 06:30 am SW 8.0 9.9------ 57.9-----
2024-03-02 06:24 am SW 6.0 8.0------ 57.6-----
2024-03-02 06:12 amWSW 5.1 8.0------ 57.4-----
2024-03-02 06:06 amWSW 6.0 8.0------ 57.0-----
2024-03-02 06:00 am W 7.0 8.9------ 57.0-----
2024-03-02 05:48 am W 8.9 12.0------ 56.7-----
2024-03-02 05:42 amWSW 11.1 14.0------ 56.8-----
2024-03-02 05:36 amWSW 8.9 13.0------ 56.7-----
2024-03-02 05:30 am W 9.9 12.0------ 56.1-----
2024-03-02 05:18 am W 12.0 15.0------ 56.7-----
2024-03-02 05:06 am W 9.9 14.0------ 57.0-----
2024-03-02 05:00 am W 12.0 19.0------ 57.6-----
2024-03-02 04:54 amWSW 12.0 19.0------ 59.4-----
2024-03-02 04:42 amWSW 9.9 13.0------ 59.4-----
2024-03-02 04:30 amWSW 8.0 12.0------------
2024-03-02 04:24 amWSW 8.0 11.1------ 59.4-----
2024-03-02 04:18 amWSW 7.0 9.9------ 59.4-----
2024-03-02 04:06 amWSW 6.0 8.9------ 59.4-----
2024-03-02 03:54 amWSW 8.0 9.9------ 59.4-----